FHB weather

Fernandina Beach Municipal Airport
Fernandina Beach, Florida, United States

Public forecast

Using degrees Fahrenheit for public forecast. Weather courtesy of forecast.io.

METAR (pilot weather report)

Closest report is Naval Station Mayport (Admiral David L. Mcdonald Field), 13.4 nm (24.8 km) S. Retrieved 2019/08/23 00:52 UTC (22 minutes ago):

KNRB 230052Z 13009KT 10SM FEW040 SCT250 28/24 A3003 RMK AO2 SLP168 T02830239

TAF (pilot weather forecast)

Forecast is more than 12 hours old.

Closest forecast is Jacksonville International Airport, 13.7 nm (25.3 km) WSW. Retrieved 2019/08/22 00:22 UTC (1 day ago):

TAF KJAX 222320Z 2300/2324 10009KT P6SM SCT045 SCT250 FM230400 15004KT 6SM BR FEW250 FM230800 20004KT 6SM BR FEW250 FM231300 VRB05KT P6SM FEW025